Time;durP1;ratioP1;P1;durP2;ratioP2;P2;SDS_P1;SDS_P2;PMS_P1;PMS_P2;Temp;Humidity;BMP_temperature;BMP_pressure;BME280_temperature;BME280_humidity;BME280_pressure;Samples;Min_cycle;Max_cycle;Signal;HPM_P1;HPM_P2
2021/01/11 00:00:29;;;;;;;2.70;1.48;;;-3270.60;87.30;;;;;;5019889;28;20050;-83
2021/01/11 00:03:00;;;;;;;3.42;2.60;;;-3270.60;87.30;;;;;;5021240;28;20069;-85
2021/01/11 00:05:28;;;;;;;2.78;2.17;;;-3270.60;87.40;;;;;;5033516;28;20181;-86
2021/01/11 00:07:55;;;;;;;3.45;2.90;;;-3270.60;87.30;;;;;;5021912;28;20451;-84
2021/01/11 00:10:22;;;;;;;3.88;3.53;;;-3270.60;87.30;;;;;;5034952;28;20061;-85
2021/01/11 00:12:53;;;;;;;4.47;2.08;;;-3270.60;87.30;;;;;;5032441;28;20061;-86
2021/01/11 00:15:20;;;;;;;5.03;1.38;;;-3270.50;87.20;;;;;;5018670;28;20045;-86
2021/01/11 00:17:49;;;;;;;1.58;1.05;;;-3270.50;87.20;;;;;;5036165;28;20125;-86
2021/01/11 00:20:17;;;;;;;7.13;2.75;;;-3270.50;87.10;;;;;;5041470;28;20333;-85
2021/01/11 00:22:46;;;;;;;3.40;1.35;;;-3270.50;87.20;;;;;;5019159;28;20075;-85
2021/01/11 00:25:14;;;;;;;4.43;2.15;;;-3270.50;87.30;;;;;;5041585;28;20064;-86
2021/01/11 00:27:45;;;;;;;4.15;1.77;;;-3270.50;87.30;;;;;;5037021;28;20042;-86
2021/01/11 00:30:13;;;;;;;8.10;1.98;;;-3270.40;87.30;;;;;;5021998;28;20049;-85
2021/01/11 00:32:41;;;;;;;2.38;1.13;;;-3270.40;87.30;;;;;;5036454;28;20221;-85
2021/01/11 00:35:11;;;;;;;4.95;2.50;;;-3270.40;87.30;;;;;;5034757;28;20050;-85
2021/01/11 00:37:41;;;;;;;;;;;-3270.40;87.20;;;;;;5022323;28;20037;-88
2021/01/11 00:40:11;;;;;;;2.38;1.17;;;-3270.40;87.10;;;;;;5022888;28;19963;-85
2021/01/11 00:42:39;;;;;;;4.10;2.63;;;-3270.40;87.10;;;;;;5003603;28;20052;-87
2021/01/11 00:45:12;;;;;;;5.47;3.00;;;-3270.40;87.10;;;;;;5038762;28;20053;-85
2021/01/11 00:47:43;;;;;;;3.92;1.48;;;-3270.40;87.30;;;;;;5035924;28;20237;-86
2021/01/11 00:50:13;;;;;;;2.00;1.42;;;-3270.40;87.40;;;;;;5037761;28;20574;-86
2021/01/11 00:52:42;;;;;;;3.28;1.95;;;-3270.30;87.10;;;;;;5042310;28;20069;-87
2021/01/11 00:55:14;;;;;;;5.75;2.83;;;-3270.30;87.20;;;;;;5040412;28;20052;-85
2021/01/11 00:57:50;;;;;;;1.23;1.13;;;-3270.30;87.00;;;;;;5039449;28;20052;-85
2021/01/11 01:00:22;;;;;;;8.27;2.28;;;-3270.30;87.10;;;;;;5045408;28;20045;-85
2021/01/11 01:03:07;;;;;;;2.85;1.55;;;-3270.30;87.20;;;;;;5028591;28;20094;-82
2021/01/11 01:05:34;;;;;;;8.18;3.42;;;-3270.30;87.30;;;;;;5044074;28;20068;-86
2021/01/11 01:08:02;;;;;;;3.50;2.15;;;-3270.30;87.20;;;;;;5053895;28;20101;-84
2021/01/11 01:10:30;;;;;;;6.82;2.08;;;-3270.30;87.00;;;;;;5059128;28;20121;-83
2021/01/11 01:12:58;;;;;;;3.05;2.10;;;-3270.30;87.20;;;;;;5043863;28;20073;-85
2021/01/11 01:15:25;;;;;;;7.05;2.92;;;-3270.30;87.10;;;;;;5044653;28;20108;-86
2021/01/11 01:17:53;;;;;;;4.72;2.42;;;-3270.30;87.20;;;;;;5036391;28;20072;-86
2021/01/11 01:20:22;;;;;;;2.80;1.27;;;-3270.30;87.10;;;;;;5041541;28;20053;-85
2021/01/11 01:22:50;;;;;;;2.58;2.22;;;-3270.30;87.00;;;;;;5036982;28;20365;-84
2021/01/11 01:25:17;;;;;;;6.03;1.20;;;-3270.30;86.90;;;;;;5027085;28;20064;-85
2021/01/11 01:27:45;;;;;;;4.07;2.35;;;-3270.30;87.00;;;;;;5035576;28;20053;-83
2021/01/11 01:30:13;;;;;;;2.95;2.75;;;-3270.20;87.10;;;;;;5040775;28;20049;-83
2021/01/11 01:32:41;;;;;;;5.45;2.05;;;-3270.30;87.20;;;;;;5031571;28;20041;-83
2021/01/11 01:35:10;;;;;;;3.20;2.55;;;-3270.20;87.20;;;;;;5057950;28;20053;-86
2021/01/11 01:37:41;;;;;;;5.18;2.38;;;-3270.20;87.20;;;;;;5042240;28;20053;-85
2021/01/11 01:40:17;;;;;;;3.15;1.10;;;-3270.20;87.20;;;;;;5043736;28;20068;-85
2021/01/11 01:42:45;;;;;;;4.63;2.13;;;-3270.20;87.00;;;;;;5043165;28;20401;-85
2021/01/11 01:45:14;;;;;;;3.50;1.88;;;-3270.20;86.80;;;;;;5037277;28;20077;-86
2021/01/11 01:47:42;;;;;;;3.63;3.10;;;-3270.20;86.80;;;;;;5020519;28;20095;-84
2021/01/11 01:50:12;;;;;;;2.13;1.00;;;-3270.20;86.80;;;;;;5028420;28;20045;-84
2021/01/11 01:52:42;;;;;;;6.05;1.40;;;-3270.20;87.00;;;;;;5036352;28;20133;-83
2021/01/11 01:55:12;;;;;;;3.75;2.40;;;-3270.20;86.90;;;;;;5027193;28;20071;-84
2021/01/11 01:57:41;;;;;;;1.93;1.40;;;-3270.30;86.60;;;;;;5024787;28;20057;-83
2021/01/11 02:00:11;;;;;;;5.43;3.78;;;-3270.40;86.60;;;;;;5019036;28;20053;-84
2021/01/11 02:02:42;;;;;;;2.63;1.67;;;-3270.40;86.70;;;;;;5022149;28;20041;-83
2021/01/11 02:05:11;;;;;;;3.22;2.28;;;-3270.40;86.70;;;;;;5037763;28;20057;-85
2021/01/11 02:07:48;;;;;;;5.68;2.42;;;-3270.50;86.60;;;;;;5034757;28;20065;-86
2021/01/11 02:10:26;;;;;;;5.72;2.35;;;-3270.60;86.70;;;;;;5034514;28;20097;-85
2021/01/11 02:13:17;;;;;;;7.47;3.13;;;-3270.60;87.20;;;;;;5037686;28;20060;-86
2021/01/11 02:15:54;;;;;;;2.85;2.17;;;-3270.60;86.70;;;;;;5053772;28;20076;-85
2021/01/11 02:18:29;;;;;;;3.35;1.48;;;-3270.60;87.20;;;;;;5040635;28;20049;-86
2021/01/11 02:21:21;;;;;;;2.15;1.30;;;-3270.70;86.40;;;;;;5021090;28;20053;-86
2021/01/11 02:24:33;;;;;;;1.77;1.48;;;-3270.70;86.10;;;;;;5032680;28;20049;-86
2021/01/11 02:27:13;;;;;;;1.92;1.70;;;-3270.60;86.10;;;;;;5000631;28;20054;-84
2021/01/11 02:30:03;;;;;;;4.32;2.38;;;-3270.50;86.00;;;;;;4998764;28;20077;-85
2021/01/11 02:32:30;;;;;;;2.42;0.90;;;-3270.50;86.30;;;;;;5014664;28;20478;-85
2021/01/11 02:35:04;;;;;;;3.55;1.63;;;-3270.50;86.20;;;;;;5013485;28;20046;-85
2021/01/11 02:37:32;;;;;;;3.13;1.92;;;-3270.40;86.30;;;;;;4996296;28;20054;-85
2021/01/11 02:40:00;;;;;;;2.83;1.08;;;-3270.40;86.40;;;;;;5000549;28;20046;-86
2021/01/11 02:42:30;;;;;;;3.50;1.63;;;-3270.40;86.40;;;;;;4979401;28;20054;-83
2021/01/11 02:45:00;;;;;;;1.55;1.20;;;-3270.40;86.50;;;;;;4999872;28;20053;-84
2021/01/11 02:47:47;;;;;;;2.10;1.13;;;-3270.40;86.50;;;;;;4995341;28;20062;-85
2021/01/11 02:50:24;;;;;;;6.75;1.48;;;-3270.30;86.50;;;;;;4978986;28;20054;-84
2021/01/11 02:53:00;;;;;;;1.90;1.75;;;-3270.30;86.50;;;;;;5011530;28;20425;-85
2021/01/11 02:55:39;;;;;;;2.30;1.65;;;-3270.30;86.50;;;;;;4995399;28;20215;-85
2021/01/11 02:58:13;;;;;;;6.03;2.75;;;-3270.30;86.30;;;;;;4997440;28;20055;-85
2021/01/11 03:00:42;;;;;;;4.57;1.98;;;-3270.20;86.30;;;;;;4982277;28;20388;-85
2021/01/11 03:03:13;;;;;;;2.70;1.75;;;-3270.20;86.50;;;;;;4980402;28;20065;-86
2021/01/11 03:05:42;;;;;;;2.92;1.58;;;-3270.20;86.60;;;;;;4982574;28;20062;-82
2021/01/11 03:08:12;;;;;;;1.70;1.48;;;-3270.20;86.60;;;;;;4995519;28;20039;-85
2021/01/11 03:10:43;;;;;;;2.35;2.05;;;-3270.20;86.70;;;;;;4994202;28;20065;-84
2021/01/11 03:13:10;;;;;;;1.30;1.13;;;-3270.20;86.90;;;;;;4978730;28;20062;-85
2021/01/11 03:15:37;;;;;;;5.45;2.45;;;-3270.20;87.00;;;;;;4989911;28;20221;-87
2021/01/11 03:18:05;;;;;;;3.03;2.10;;;-3270.20;87.00;;;;;;4996750;28;20058;-87
2021/01/11 03:20:31;;;;;;;12.60;1.95;;;-3270.20;87.00;;;;;;4994773;28;20089;-86
2021/01/11 03:22:59;;;;;;;3.83;2.15;;;-3270.20;87.10;;;;;;4990359;28;20057;-86
2021/01/11 03:25:26;;;;;;;2.15;0.82;;;-3270.10;87.30;;;;;;5009255;28;20103;-86
2021/01/11 03:27:53;;;;;;;5.65;2.38;;;-3270.10;87.50;;;;;;5012413;28;20415;-88
2021/01/11 03:30:21;;;;;;;5.38;2.85;;;-3270.10;87.60;;;;;;5016041;28;20044;-87
2021/01/11 03:32:49;;;;;;;3.92;2.72;;;-3270.10;87.50;;;;;;5036382;28;20052;-86
2021/01/11 03:35:18;;;;;;;9.30;1.90;;;-3270.10;87.60;;;;;;5016260;28;20072;-88
2021/01/11 03:37:45;;;;;;;4.10;2.45;;;-3270.10;87.70;;;;;;5016084;28;20045;-86
2021/01/11 03:40:13;;;;;;;4.07;1.70;;;-3270.10;87.70;;;;;;5029816;28;20080;-86
2021/01/11 03:42:41;;;;;;;1.95;1.20;;;-3270.10;87.50;;;;;;5034135;28;20057;-86
2021/01/11 03:45:10;;;;;;;2.65;1.52;;;-3270.10;87.50;;;;;;5050385;28;20077;-88
2021/01/11 03:47:38;;;;;;;3.25;1.83;;;-3270.20;87.60;;;;;;5034498;28;20064;-87
2021/01/11 03:50:07;;;;;;;4.22;2.30;;;-3270.20;87.60;;;;;;5016210;28;20083;-86
2021/01/11 03:52:37;;;;;;;;;;;-3270.10;87.50;;;;;;5023516;28;20037;-85
2021/01/11 03:55:07;;;;;;;3.72;1.80;;;-3270.10;87.50;;;;;;5036862;28;19932;-86
2021/01/11 03:57:36;;;;;;;6.03;1.45;;;-3270.10;87.60;;;;;;5020139;28;20132;-87
2021/01/11 04:00:07;;;;;;;4.22;2.40;;;-3270.10;87.60;;;;;;5036913;28;20109;-86
2021/01/11 04:02:35;;;;;;;1.63;1.27;;;-3270.10;87.30;;;;;;5039736;28;20063;-87
2021/01/11 04:05:06;;;;;;;3.65;1.95;;;-3270.20;87.50;;;;;;5037401;28;20236;-87
2021/01/11 04:07:34;;;;;;;4.45;1.83;;;-3270.10;87.50;;;;;;5035253;28;20045;-87
2021/01/11 04:10:06;;;;;;;2.53;2.00;;;-3270.20;87.50;;;;;;5035017;28;20361;-87
2021/01/11 04:12:35;;;;;;;1.75;1.13;;;-3270.20;87.30;;;;;;5030170;28;20275;-87
2021/01/11 04:15:03;;;;;;;5.00;2.50;;;-3270.10;87.20;;;;;;5050355;28;20244;-88
2021/01/11 04:17:31;;;;;;;2.08;1.58;;;-3270.10;87.30;;;;;;5032092;28;20336;-85
2021/01/11 04:19:59;;;;;;;2.53;1.35;;;-3270.10;87.00;;;;;;5034000;28;20070;-86
2021/01/11 04:22:26;;;;;;;3.20;1.45;;;-3270.10;87.00;;;;;;5033147;28;20353;-87
2021/01/11 04:24:53;;;;;;;4.82;1.83;;;-3270.10;87.10;;;;;;5037049;28;20071;-86
2021/01/11 04:27:25;;;;;;;2.38;1.20;;;-3270.10;86.90;;;;;;5036248;28;20214;-87
2021/01/11 04:29:53;;;;;;;6.95;1.80;;;-3270.10;86.60;;;;;;5039498;28;20053;-86
2021/01/11 04:32:21;;;;;;;5.28;2.00;;;-3270.10;86.60;;;;;;5052397;28;20084;-86
2021/01/11 04:34:49;;;;;;;3.22;1.48;;;-3270.10;86.40;;;;;;5044640;28;20511;-86
2021/01/11 04:37:17;;;;;;;2.22;1.85;;;-3270.10;86.50;;;;;;5058987;28;20252;-85
2021/01/11 04:39:51;;;;;;;7.65;1.85;;;-3270.10;86.60;;;;;;5057447;28;20045;-86
2021/01/11 04:42:35;;;;;;;2.63;1.40;;;-3270.00;86.50;;;;;;5024478;28;20049;-87
2021/01/11 04:45:07;;;;;;;3.03;1.15;;;-3270.00;86.40;;;;;;5042793;28;20303;-87
2021/01/11 04:47:36;;;;;;;4.97;1.52;;;-3270.00;86.50;;;;;;5044145;28;20069;-86
2021/01/11 04:50:05;;;;;;;2.63;1.83;;;-3270.00;86.40;;;;;;5043785;28;20044;-85
2021/01/11 04:52:40;;;;;;;0.90;0.80;;;-3270.00;86.40;;;;;;5037945;28;20054;-86
2021/01/11 04:55:17;;;;;;;5.50;1.73;;;-3269.90;86.60;;;;;;5033974;28;20088;-87
2021/01/11 04:57:57;;;;;;;3.13;2.60;;;-3269.90;86.60;;;;;;5043744;28;20256;-84
2021/01/11 05:00:27;;;;;;;1.30;0.68;;;-3270.00;86.60;;;;;;5040608;28;20147;-86
2021/01/11 05:03:05;;;;;;;2.33;1.58;;;-3269.90;86.60;;;;;;5054982;28;20052;-85
2021/01/11 05:05:38;;;;;;;3.17;1.52;;;-3269.90;87.40;;;;;;5041500;28;20922;-86
2021/01/11 05:08:07;;;;;;;1.00;0.90;;;-3269.90;87.00;;;;;;5039028;28;20056;-87
2021/01/11 05:10:36;;;;;;;7.20;2.58;;;-3270.00;86.80;;;;;;5042086;28;20041;-86
2021/01/11 05:13:07;;;;;;;3.22;2.17;;;-3270.00;86.70;;;;;;5043762;28;20056;-86
2021/01/11 05:15:43;;;;;;;2.00;1.10;;;-3269.90;86.80;;;;;;5043063;28;20289;-86
2021/01/11 05:18:16;;;;;;;1.95;1.42;;;-3269.90;86.80;;;;;;5044723;28;20079;-87
2021/01/11 05:20:47;;;;;;;5.82;2.42;;;-3269.90;86.90;;;;;;5040402;28;20071;-87
2021/01/11 05:23:15;;;;;;;3.42;1.85;;;-3269.90;86.90;;;;;;5026074;28;20053;-87
2021/01/11 05:25:44;;;;;;;3.38;1.27;;;-3270.00;87.00;;;;;;5041407;28;20049;-87
2021/01/11 05:28:15;;;;;;;8.68;3.58;;;-3270.00;86.90;;;;;;5041720;28;20049;-87
2021/01/11 05:30:46;;;;;;;6.18;2.28;;;-3270.00;87.00;;;;;;5024343;28;20065;-87
2021/01/11 05:33:18;;;;;;;1.65;1.35;;;-3269.90;87.10;;;;;;5024520;28;20273;-87
2021/01/11 05:35:46;;;;;;;3.42;1.65;;;-3269.90;87.40;;;;;;5040252;28;20080;-86
2021/01/11 05:38:18;;;;;;;4.57;2.72;;;-3270.00;87.30;;;;;;5041658;28;20045;-87
2021/01/11 05:40:47;;;;;;;5.70;2.72;;;-3269.90;87.30;;;;;;5035701;28;20050;-86
2021/01/11 05:43:21;;;;;;;3.15;1.50;;;-3269.90;87.30;;;;;;5024517;28;20120;-87
2021/01/11 05:45:49;;;;;;;3.08;1.35;;;-3269.90;87.40;;;;;;5021923;28;20122;-88
2021/01/11 05:48:21;;;;;;;4.03;2.05;;;-3269.90;87.50;;;;;;5020480;28;20121;-87
2021/01/11 05:50:50;;;;;;;4.55;2.65;;;-3269.90;87.70;;;;;;5033837;28;20047;-87
2021/01/11 05:53:21;;;;;;;3.22;1.75;;;-3269.90;87.70;;;;;;5021115;28;20236;-87
2021/01/11 05:55:51;;;;;;;;;;;-3269.90;87.70;;;;;;5022915;28;20046;-87
2021/01/11 05:58:27;;;;;;;0.98;0.73;;;-3269.90;87.80;;;;;;5054077;28;19963;-87
2021/01/11 06:00:59;;;;;;;1.63;1.38;;;-3269.90;87.60;;;;;;5042971;28;20066;-86
2021/01/11 06:03:27;;;;;;;7.28;1.83;;;-3269.90;87.20;;;;;;5040906;28;20049;-86
2021/01/11 06:05:55;;;;;;;2.38;1.17;;;-3269.90;87.20;;;;;;5059832;28;20052;-86
2021/01/11 06:08:26;;;;;;;0.98;0.80;;;-3269.80;87.40;;;;;;5023973;28;20072;-87
2021/01/11 06:10:58;;;;;;;4.00;2.60;;;-3269.80;87.50;;;;;;5042114;28;20045;-86
2021/01/11 06:13:27;;;;;;;3.08;1.80;;;-3269.80;87.40;;;;;;5040236;28;20088;-87
2021/01/11 06:15:58;;;;;;;1.83;1.02;;;-3269.80;87.40;;;;;;5038432;28;20049;-87
2021/01/11 06:18:29;;;;;;;4.20;2.55;;;-3269.80;87.50;;;;;;5058588;28;20117;-87
2021/01/11 06:20:57;;;;;;;2.40;1.60;;;-3269.80;87.30;;;;;;5021575;28;20053;-87
2021/01/11 06:23:31;;;;;;;3.60;1.48;;;-3269.80;87.30;;;;;;5038988;28;20049;-87
2021/01/11 06:25:59;;;;;;;5.82;2.53;;;-3269.70;87.30;;;;;;5024337;28;20049;-87
2021/01/11 06:28:35;;;;;;;2.28;1.50;;;-3269.80;87.20;;;;;;5042508;28;20045;-86
2021/01/11 06:31:11;;;;;;;10.20;3.38;;;-3269.70;87.30;;;;;;5036754;28;20061;-87
2021/01/11 06:33:47;;;;;;;2.65;2.13;;;-3269.60;87.60;;;;;;5006980;28;20480;-86
2021/01/11 06:36:24;;;;;;;8.85;2.03;;;-3269.60;88.00;;;;;;5023593;28;20061;-86
2021/01/11 06:38:54;;;;;;;10.00;3.33;;;-3269.60;88.10;;;;;;5024024;28;20045;-86
2021/01/11 06:41:34;;;;;;;4.35;1.80;;;-3269.80;88.10;;;;;;5034006;28;20050;-85
2021/01/11 06:44:16;;;;;;;4.25;2.35;;;-3269.80;87.30;;;;;;5037863;28;20049;-86
2021/01/11 06:46:46;;;;;;;4.38;1.65;;;-3269.80;87.00;;;;;;5039215;28;20363;-85
2021/01/11 06:49:30;;;;;;;1.60;1.30;;;-3269.80;86.80;;;;;;5038166;28;20072;-86
2021/01/11 06:52:09;;;;;;;4.47;1.60;;;-3269.80;86.90;;;;;;5040145;28;20130;-87
2021/01/11 06:54:46;;;;;;;4.43;2.28;;;-3269.70;86.40;;;;;;5038245;28;20085;-86
2021/01/11 06:57:19;;;;;;;5.63;1.13;;;-3269.80;86.80;;;;;;5041421;28;20049;-87
2021/01/11 06:59:51;;;;;;;3.50;1.48;;;-3269.70;86.70;;;;;;5034815;28;20788;-86
2021/01/11 07:02:22;;;;;;;2.28;1.60;;;-3269.70;87.00;;;;;;5038489;28;20041;-87
2021/01/11 07:04:51;;;;;;;6.90;3.17;;;-3269.70;87.10;;;;;;5035464;28;20108;-86
2021/01/11 07:07:25;;;;;;;3.35;1.83;;;-3269.80;87.00;;;;;;5053785;28;20049;-86
2021/01/11 07:09:56;;;;;;;6.30;2.80;;;-3269.80;86.80;;;;;;5023582;28;20335;-86
2021/01/11 07:12:26;;;;;;;8.90;3.03;;;-3269.80;86.80;;;;;;5039592;28;20380;-86
2021/01/11 07:14:56;;;;;;;2.58;1.63;;;-3269.80;86.80;;;;;;5020984;28;20038;-88
2021/01/11 07:17:41;;;;;;;6.97;2.47;;;-3269.80;86.60;;;;;;5022949;28;20049;-86
2021/01/11 07:20:11;;;;;;;7.30;2.92;;;-3269.70;87.10;;;;;;5036324;28;20087;-84
2021/01/11 07:22:47;;;;;;;2.08;1.48;;;-3269.60;87.20;;;;;;5022442;28;20065;-87
2021/01/11 07:25:21;;;;;;;6.80;2.53;;;-3269.60;87.60;;;;;;5031718;28;20064;-86
2021/01/11 07:27:55;;;;;;;5.85;2.55;;;-3269.60;87.40;;;;;;5041187;28;20079;-86
2021/01/11 07:30:28;;;;;;;2.60;1.50;;;-3269.70;87.80;;;;;;5037135;28;20050;-84
2021/01/11 07:32:57;;;;;;;4.85;1.80;;;-3269.80;87.20;;;;;;5038958;28;20164;-84
2021/01/11 07:35:27;;;;;;;5.55;3.10;;;-3269.90;86.80;;;;;;5039620;28;20041;-87
2021/01/11 07:37:54;;;;;;;3.93;1.97;;;-3269.90;86.30;;;;;;5036390;28;20045;-84
2021/01/11 07:40:23;;;;;;;3.00;2.08;;;-3269.90;86.20;;;;;;5036016;28;20072;-86
2021/01/11 07:42:59;;;;;;;2.55;1.50;;;-3269.90;85.90;;;;;;5038962;28;20045;-87
2021/01/11 07:45:27;;;;;;;3.00;1.90;;;-3269.90;85.90;;;;;;5039182;28;20758;-87
2021/01/11 07:47:57;;;;;;;3.72;2.83;;;-3269.90;85.60;;;;;;5037697;28;20434;-86
2021/01/11 07:50:32;;;;;;;3.33;1.88;;;-3269.90;86.40;;;;;;5038552;28;20056;-87
2021/01/11 07:53:00;;;;;;;6.45;3.22;;;-3269.90;86.30;;;;;;5025815;28;20068;-85
2021/01/11 07:55:29;;;;;;;16.20;5.03;;;-3270.00;86.00;;;;;;5016302;28;20045;-85
2021/01/11 07:58:02;;;;;;;6.15;2.72;;;-3270.10;85.90;;;;;;5036232;28;20234;-86
2021/01/11 08:00:31;;;;;;;4.18;2.85;;;-3270.10;86.40;;;;;;5038616;28;20676;-86
2021/01/11 08:03:00;;;;;;;5.85;2.83;;;-3270.20;86.00;;;;;;5039147;28;20049;-86
2021/01/11 08:05:31;;;;;;;3.87;2.10;;;-3270.30;85.70;;;;;;5022326;28;20322;-87
2021/01/11 08:08:04;;;;;;;5.05;1.90;;;-3270.20;85.60;;;;;;5034412;28;20532;-85
2021/01/11 08:10:33;;;;;;;5.28;2.10;;;-3270.30;86.10;;;;;;5037313;28;20044;-84
2021/01/11 08:13:06;;;;;;;4.38;2.33;;;-3270.40;85.70;;;;;;5022549;28;20278;-85
2021/01/11 08:15:35;;;;;;;7.63;3.20;;;-3270.40;85.90;;;;;;5035965;28;20060;-86
2021/01/11 08:18:05;;;;;;;2.90;0.95;;;-3270.50;85.80;;;;;;5021473;28;20041;-87
2021/01/11 08:20:33;;;;;;;3.33;1.42;;;-3270.60;85.40;;;;;;5039889;28;20080;-86
2021/01/11 08:23:08;;;;;;;3.05;2.17;;;-3270.60;85.60;;;;;;5053220;28;20272;-85
2021/01/11 08:25:36;;;;;;;2.63;2.28;;;-3270.80;85.40;;;;;;5037547;28;20055;-87
2021/01/11 08:28:05;;;;;;;9.88;2.83;;;-3270.90;84.60;;;;;;5037819;28;20130;-86
2021/01/11 08:30:36;;;;;;;5.30;2.75;;;-3271.00;84.70;;;;;;5036258;28;20054;-85
2021/01/11 08:33:10;;;;;;;6.80;3.00;;;-3271.10;84.50;;;;;;5031517;28;20083;-84
2021/01/11 08:35:38;;;;;;;5.10;3.20;;;-3271.20;84.00;;;;;;5003466;28;20049;-84
2021/01/11 08:38:09;;;;;;;3.25;2.88;;;-3271.20;83.70;;;;;;5022720;28;20045;-86
2021/01/11 08:40:38;;;;;;;10.07;3.47;;;-3271.20;84.50;;;;;;5032756;28;20057;-85
2021/01/11 08:43:19;;;;;;;3.85;1.73;;;-3271.20;84.30;;;;;;5035629;28;20056;-83
2021/01/11 08:45:53;;;;;;;3.00;1.95;;;-3271.20;84.30;;;;;;5021361;28;20061;-85
2021/01/11 08:48:25;;;;;;;4.57;3.38;;;-3271.40;84.60;;;;;;5022936;28;20050;-87
2021/01/11 08:50:59;;;;;;;5.32;3.10;;;-3271.50;84.00;;;;;;5016192;28;20053;-83
2021/01/11 08:53:30;;;;;;;6.50;2.63;;;-3271.70;83.30;;;;;;5019365;28;20344;-84
2021/01/11 08:56:01;;;;;;;5.82;3.28;;;-3271.80;83.00;;;;;;5036496;28;20323;-83
2021/01/11 08:58:30;;;;;;;7.50;4.35;;;-3271.90;83.50;;;;;;5015920;28;20053;-84
2021/01/11 09:01:16;;;;;;;3.80;3.30;;;-3272.10;83.10;;;;;;5035919;28;20053;-85
2021/01/11 09:03:47;;;;;;;7.47;2.83;;;-3272.40;82.30;;;;;;5052266;28;20060;-85
2021/01/11 09:06:34;;;;;;;3.97;3.45;;;-3272.70;81.80;;;;;;5021110;28;20364;-83
2021/01/11 09:09:06;;;;;;;9.45;5.70;;;-3273.20;80.40;;;;;;5033784;28;20120;-83
2021/01/11 09:11:38;;;;;;;7.72;4.65;;;-3273.60;79.70;;;;;;5042041;28;20092;-83
2021/01/11 09:14:07;;;;;;;6.00;3.38;;;-3274.00;77.00;;;;;;5039653;28;20120;-82
2021/01/11 09:16:36;;;;;;;4.32;2.92;;;-3274.40;76.40;;;;;;5007278;28;20052;-82
2021/01/11 09:19:10;;;;;;;9.32;3.38;;;-3274.60;74.60;;;;;;5042407;28;20049;-84
2021/01/11 09:21:42;;;;;;;8.50;3.92;;;-3274.90;73.70;;;;;;5058126;28;20232;-85
2021/01/11 09:24:11;;;;;;;7.07;2.38;;;-3275.20;72.50;;;;;;5038155;28;20052;-82
2021/01/11 09:26:40;;;;;;;5.72;2.90;;;-3275.40;72.10;;;;;;5020509;28;20435;-86
2021/01/11 09:29:11;;;;;;;5.60;3.25;;;-3275.60;72.60;;;;;;5035681;28;20418;-84
2021/01/11 09:31:42;;;;;;;4.63;2.50;;;-3275.90;69.40;;;;;;5035305;28;20053;-81
2021/01/11 09:34:10;;;;;;;5.78;2.92;;;-3276.60;68.60;;;;;;5020122;28;20100;-83
2021/01/11 09:36:39;;;;;;;8.80;3.70;;;0.00;65.80;;;;;;5041260;28;20064;-83
2021/01/11 09:39:08;;;;;;;12.27;4.10;;;0.10;66.50;;;;;;5034989;28;20075;-83
2021/01/11 09:41:42;;;;;;;8.35;3.25;;;0.50;64.50;;;;;;5034303;28;20049;-87
2021/01/11 09:44:10;;;;;;;8.88;3.03;;;0.70;66.20;;;;;;5053201;28;20206;-83
2021/01/11 09:46:46;;;;;;;9.63;4.07;;;1.70;63.00;;;;;;5036225;28;20049;-83
2021/01/11 09:49:14;;;;;;;6.85;2.85;;;1.80;60.40;;;;;;5021107;28;20115;-87
2021/01/11 09:51:45;;;;;;;11.70;4.38;;;1.70;59.10;;;;;;5037972;28;20080;-85
2021/01/11 09:54:17;;;;;;;8.68;3.97;;;1.90;59.50;;;;;;5022686;28;20076;-83
2021/01/11 09:56:45;;;;;;;10.25;4.20;;;1.80;58.70;;;;;;5057119;28;20103;-85
2021/01/11 09:59:14;;;;;;;8.68;4.82;;;1.90;60.50;;;;;;5038669;28;20116;-85
2021/01/11 10:01:44;;;;;;;9.57;4.15;;;2.20;59.90;;;;;;5020512;28;20048;-84
2021/01/11 10:04:13;;;;;;;8.25;4.50;;;2.40;57.40;;;;;;5040794;28;20049;-87
2021/01/11 10:06:43;;;;;;;12.30;4.18;;;1.90;59.00;;;;;;5032584;28;20069;-83
2021/01/11 10:09:13;;;;;;;10.20;5.30;;;1.60;60.40;;;;;;5036548;28;20124;-82
2021/01/11 10:11:41;;;;;;;11.95;4.22;;;1.50;59.30;;;;;;5036721;28;20311;-86
2021/01/11 10:14:08;;;;;;;8.68;4.57;;;0.90;61.40;;;;;;5054191;28;20229;-85
2021/01/11 10:16:40;;;;;;;11.07;3.58;;;0.70;62.70;;;;;;5034586;28;20057;-85
2021/01/11 10:19:14;;;;;;;10.80;4.55;;;1.10;61.70;;;;;;5038652;28;20057;-84
2021/01/11 10:21:42;;;;;;;7.03;3.28;;;0.90;63.60;;;;;;5020599;28;20057;-83
2021/01/11 10:24:11;;;;;;;10.63;4.18;;;1.30;62.40;;;;;;5038706;28;20140;-84
2021/01/11 10:26:42;;;;;;;7.38;3.35;;;1.90;60.20;;;;;;5040223;28;20053;-84
2021/01/11 10:29:13;;;;;;;8.67;4.03;;;2.30;59.90;;;;;;5036447;28;20077;-83
2021/01/11 10:31:44;;;;;;;9.18;3.78;;;2.70;59.00;;;;;;5039914;28;20226;-86
2021/01/11 10:34:16;;;;;;;7.85;4.18;;;3.40;58.30;;;;;;5037636;28;20099;-84
2021/01/11 10:36:45;;;;;;;9.80;4.07;;;4.80;53.70;;;;;;5039285;28;20069;-84
2021/01/11 10:39:14;;;;;;;8.50;4.70;;;5.40;51.20;;;;;;5019010;28;20045;-85
2021/01/11 10:41:43;;;;;;;12.55;4.95;;;4.60;50.30;;;;;;5035780;28;20356;-84
2021/01/11 10:44:11;;;;;;;7.90;4.20;;;3.80;53.10;;;;;;5035361;28;20072;-86
2021/01/11 10:46:42;;;;;;;8.75;3.67;;;3.20;57.00;;;;;;5022392;28;20060;-85
2021/01/11 10:49:11;;;;;;;13.18;4.82;;;3.10;57.20;;;;;;5025093;28;20053;-85
2021/01/11 10:51:41;;;;;;;10.23;4.70;;;2.60;58.70;;;;;;5035762;28;20072;-86
2021/01/11 10:54:10;;;;;;;10.82;5.05;;;1.90;61.00;;;;;;5049955;28;20072;-84
2021/01/11 10:56:40;;;;;;;12.32;5.10;;;1.40;63.30;;;;;;5017267;28;20053;-83
2021/01/11 10:59:08;;;;;;;13.18;5.30;;;1.40;64.70;;;;;;5032812;28;20067;-85
2021/01/11 11:01:36;;;;;;;12.25;5.07;;;1.20;65.80;;;;;;5033646;28;20053;-85
2021/01/11 11:04:07;;;;;;;12.13;5.05;;;1.50;65.30;;;;;;5039365;28;20554;-84
2021/01/11 11:06:36;;;;;;;12.40;5.88;;;1.40;65.30;;;;;;5037358;28;20041;-85
2021/01/11 11:09:06;;;;;;;13.35;6.55;;;1.40;66.30;;;;;;5019071;28;20771;-84
2021/01/11 11:11:37;;;;;;;12.23;5.03;;;1.70;65.80;;;;;;5040671;28;20069;-85
2021/01/11 11:14:05;;;;;;;10.45;4.13;;;2.30;64.40;;;;;;5038697;28;20360;-87
2021/01/11 11:16:33;;;;;;;11.45;5.07;;;1.90;64.50;;;;;;5039342;28;20071;-86
2021/01/11 11:19:02;;;;;;;9.13;4.50;;;1.50;66.90;;;;;;5039097;28;20076;-84
2021/01/11 11:21:30;;;;;;;11.18;5.50;;;1.10;68.70;;;;;;5036985;28;20064;-83
2021/01/11 11:24:00;;;;;;;12.68;4.93;;;1.10;69.70;;;;;;5019680;28;20045;-86
2021/01/11 11:26:32;;;;;;;8.10;4.38;;;1.20;69.70;;;;;;5033175;28;20056;-83
2021/01/11 11:28:59;;;;;;;12.20;4.55;;;1.00;70.90;;;;;;5057529;28;20049;-85
2021/01/11 11:31:33;;;;;;;9.18;4.35;;;0.70;71.90;;;;;;5034403;28;20045;-82
2021/01/11 11:34:02;;;;;;;12.88;6.80;;;1.20;71.90;;;;;;5034250;28;20084;-84
2021/01/11 11:36:32;;;;;;;12.07;5.38;;;2.10;68.40;;;;;;5055440;28;20409;-84
2021/01/11 11:39:00;;;;;;;10.55;5.80;;;2.80;66.00;;;;;;5050868;28;20269;-86
2021/01/11 11:41:33;;;;;;;13.18;4.45;;;3.20;63.70;;;;;;5017761;28;20045;-86
2021/01/11 11:44:13;;;;;;;10.63;4.88;;;3.80;63.20;;;;;;5019055;28;20049;-86
2021/01/11 11:46:41;;;;;;;11.27;5.07;;;3.70;62.00;;;;;;5036795;28;20183;-85
2021/01/11 11:49:09;;;;;;;8.05;4.25;;;3.30;64.00;;;;;;5039691;28;20064;-83
2021/01/11 11:51:43;;;;;;;13.05;5.93;;;3.90;62.70;;;;;;5040944;28;20069;-83
2021/01/11 11:54:23;;;;;;;10.45;5.45;;;4.00;62.40;;;;;;5021730;28;20188;-83
2021/01/11 11:56:52;;;;;;;13.13;6.75;;;4.40;62.90;;;;;;5039795;28;20099;-85
2021/01/11 11:59:24;;;;;;;11.98;6.20;;;4.50;61.30;;;;;;5038430;28;20045;-86
2021/01/11 12:01:52;;;;;;;12.55;6.32;;;4.30;62.00;;;;;;5022983;28;20061;-83
2021/01/11 12:04:20;;;;;;;15.90;6.50;;;4.40;62.20;;;;;;5025350;28;20049;-83
2021/01/11 12:06:48;;;;;;;11.93;6.65;;;4.40;62.60;;;;;;5022747;28;20065;-84
2021/01/11 12:09:17;;;;;;;14.10;6.13;;;4.20;64.30;;;;;;5056101;28;20123;-85
2021/01/11 12:11:49;;;;;;;11.25;7.00;;;4.90;62.40;;;;;;5038315;28;20423;-84
2021/01/11 12:14:21;;;;;;;16.65;6.70;;;5.00;61.30;;;;;;5035780;28;20049;-84
2021/01/11 12:16:54;;;;;;;13.00;6.55;;;5.20;61.30;;;;;;5054632;28;20052;-85
2021/01/11 12:19:31;;;;;;;12.38;7.03;;;4.50;62.90;;;;;;5037201;28;20057;-85
2021/01/11 12:21:58;;;;;;;12.65;5.55;;;4.10;64.00;;;;;;5024847;28;20403;-86
2021/01/11 12:24:32;;;;;;;17.63;8.13;;;4.00;64.80;;;;;;5010948;28;20113;-85
2021/01/11 12:27:00;;;;;;;15.57;6.88;;;3.90;65.90;;;;;;5026296;28;20049;-85
2021/01/11 12:29:33;;;;;;;12.43;6.45;;;4.30;65.00;;;;;;5042739;28;20057;-84
2021/01/11 12:32:06;;;;;;;11.70;6.28;;;4.50;63.30;;;;;;5041965;28;20696;-85
2021/01/11 12:34:42;;;;;;;15.07;6.95;;;4.50;63.80;;;;;;5023952;28;20053;-86
2021/01/11 12:37:14;;;;;;;13.77;6.15;;;4.00;65.10;;;;;;5042247;28;20233;-85
2021/01/11 12:39:42;;;;;;;11.85;6.05;;;3.50;66.80;;;;;;5053812;28;20048;-83
2021/01/11 12:42:12;;;;;;;12.30;4.80;;;3.40;66.50;;;;;;5052704;28;20875;-83
2021/01/11 12:44:58;;;;;;;14.20;6.38;;;3.50;66.80;;;;;;5030041;28;20056;-85